sensor_id;sensor_type;location;lat;lon;timestamp;temperature;humidity
20712;DHT22;10517;50.742;4.224;2023-08-01T00:00:29;17.40;99.90
20712;DHT22;10517;50.742;4.224;2023-08-01T00:02:54;17.20;99.90
20712;DHT22;10517;50.742;4.224;2023-08-01T00:05:20;17.20;99.90
20712;DHT22;10517;50.742;4.224;2023-08-01T00:07:46;17.10;99.90
20712;DHT22;10517;50.742;4.224;2023-08-01T00:10:11;17.10;99.90
20712;DHT22;10517;50.742;4.224;2023-08-01T00:12:37;16.90;99.90
20712;DHT22;10517;50.742;4.224;2023-08-01T00:15:03;16.90;99.90
20712;DHT22;10517;50.742;4.224;2023-08-01T00:17:29;16.80;99.90
20712;DHT22;10517;50.742;4.224;2023-08-01T00:19:55;16.80;99.90
20712;DHT22;10517;50.742;4.224;2023-08-01T00:22:20;16.80;99.90
20712;DHT22;10517;50.742;4.224;2023-08-01T00:24:46;16.90;99.90
20712;DHT22;10517;50.742;4.224;2023-08-01T00:27:15;16.90;99.90
20712;DHT22;10517;50.742;4.224;2023-08-01T00:29:40;17.00;99.90
20712;DHT22;10517;50.742;4.224;2023-08-01T00:32:06;17.10;99.90
20712;DHT22;10517;50.742;4.224;2023-08-01T00:34:32;17.20;99.90
20712;DHT22;10517;50.742;4.224;2023-08-01T00:36:58;17.30;99.90
20712;DHT22;10517;50.742;4.224;2023-08-01T00:39:23;17.30;99.90
20712;DHT22;10517;50.742;4.224;2023-08-01T00:41:49;17.20;99.90
20712;DHT22;10517;50.742;4.224;2023-08-01T00:44:14;17.10;99.90
20712;DHT22;10517;50.742;4.224;2023-08-01T00:46:40;17.10;99.90
20712;DHT22;10517;50.742;4.224;2023-08-01T00:49:05;17.10;99.90
20712;DHT22;10517;50.742;4.224;2023-08-01T00:51:34;17.10;99.90
20712;DHT22;10517;50.742;4.224;2023-08-01T00:54:00;17.00;99.90
20712;DHT22;10517;50.742;4.224;2023-08-01T00:56:26;17.00;99.90
20712;DHT22;10517;50.742;4.224;2023-08-01T00:58:51;16.90;99.90
20712;DHT22;10517;50.742;4.224;2023-08-01T01:01:17;16.90;99.90
20712;DHT22;10517;50.742;4.224;2023-08-01T01:03:43;16.80;99.90
20712;DHT22;10517;50.742;4.224;2023-08-01T01:06:13;16.60;99.90
20712;DHT22;10517;50.742;4.224;2023-08-01T01:08:42;16.60;99.90
20712;DHT22;10517;50.742;4.224;2023-08-01T01:11:07;16.60;99.90
20712;DHT22;10517;50.742;4.224;2023-08-01T01:13:33;16.50;99.90
20712;DHT22;10517;50.742;4.224;2023-08-01T01:15:59;16.50;99.90
20712;DHT22;10517;50.742;4.224;2023-08-01T01:18:24;16.50;99.90
20712;DHT22;10517;50.742;4.224;2023-08-01T01:20:50;16.40;99.90
20712;DHT22;10517;50.742;4.224;2023-08-01T01:23:16;16.50;99.90
20712;DHT22;10517;50.742;4.224;2023-08-01T01:25:42;16.40;99.90
20712;DHT22;10517;50.742;4.224;2023-08-01T01:28:08;16.40;99.90
20712;DHT22;10517;50.742;4.224;2023-08-01T01:30:35;16.30;99.90
20712;DHT22;10517;50.742;4.224;2023-08-01T01:33:02;16.30;99.90
20712;DHT22;10517;50.742;4.224;2023-08-01T01:35:29;16.40;99.90
20712;DHT22;10517;50.742;4.224;2023-08-01T01:37:54;16.30;99.90
20712;DHT22;10517;50.742;4.224;2023-08-01T01:40:20;16.30;99.90
20712;DHT22;10517;50.742;4.224;2023-08-01T01:42:47;16.20;99.90
20712;DHT22;10517;50.742;4.224;2023-08-01T01:45:14;16.20;99.90
20712;DHT22;10517;50.742;4.224;2023-08-01T01:47:39;16.20;99.90
20712;DHT22;10517;50.742;4.224;2023-08-01T01:50:05;16.10;99.90
20712;DHT22;10517;50.742;4.224;2023-08-01T01:52:31;16.00;99.90
20712;DHT22;10517;50.742;4.224;2023-08-01T01:54:58;16.00;99.90
20712;DHT22;10517;50.742;4.224;2023-08-01T01:57:24;16.00;99.90
20712;DHT22;10517;50.742;4.224;2023-08-01T01:59:49;15.90;99.90
20712;DHT22;10517;50.742;4.224;2023-08-01T02:02:15;15.90;99.90
20712;DHT22;10517;50.742;4.224;2023-08-01T02:04:41;15.90;99.90
20712;DHT22;10517;50.742;4.224;2023-08-01T02:07:06;15.90;99.90
20712;DHT22;10517;50.742;4.224;2023-08-01T02:09:32;15.90;99.90
20712;DHT22;10517;50.742;4.224;2023-08-01T02:11:57;16.00;99.90
20712;DHT22;10517;50.742;4.224;2023-08-01T02:14:23;16.00;99.90
20712;DHT22;10517;50.742;4.224;2023-08-01T02:16:48;16.10;99.90
20712;DHT22;10517;50.742;4.224;2023-08-01T02:19:14;16.10;99.90
20712;DHT22;10517;50.742;4.224;2023-08-01T02:21:39;16.10;99.90
20712;DHT22;10517;50.742;4.224;2023-08-01T02:24:05;16.10;99.90
20712;DHT22;10517;50.742;4.224;2023-08-01T02:26:31;16.00;99.90
20712;DHT22;10517;50.742;4.224;2023-08-01T02:28:56;16.00;99.90
20712;DHT22;10517;50.742;4.224;2023-08-01T02:31:22;16.10;99.90
20712;DHT22;10517;50.742;4.224;2023-08-01T02:33:47;16.20;99.90
20712;DHT22;10517;50.742;4.224;2023-08-01T02:36:13;16.20;99.90
20712;DHT22;10517;50.742;4.224;2023-08-01T02:38:39;16.20;99.90
20712;DHT22;10517;50.742;4.224;2023-08-01T02:41:04;16.30;99.90
20712;DHT22;10517;50.742;4.224;2023-08-01T02:43:30;16.40;99.90
20712;DHT22;10517;50.742;4.224;2023-08-01T02:45:55;16.40;99.90
20712;DHT22;10517;50.742;4.224;2023-08-01T02:48:21;16.40;99.90
20712;DHT22;10517;50.742;4.224;2023-08-01T02:50:47;16.50;99.90
20712;DHT22;10517;50.742;4.224;2023-08-01T02:53:12;16.50;99.90
20712;DHT22;10517;50.742;4.224;2023-08-01T02:55:38;16.50;99.90
20712;DHT22;10517;50.742;4.224;2023-08-01T02:58:04;16.40;99.90
20712;DHT22;10517;50.742;4.224;2023-08-01T03:00:30;16.40;99.90
20712;DHT22;10517;50.742;4.224;2023-08-01T03:02:56;16.40;99.90
20712;DHT22;10517;50.742;4.224;2023-08-01T03:05:22;16.40;99.90
20712;DHT22;10517;50.742;4.224;2023-08-01T03:07:47;16.40;99.90
20712;DHT22;10517;50.742;4.224;2023-08-01T03:10:13;16.50;99.90
20712;DHT22;10517;50.742;4.224;2023-08-01T03:12:39;16.60;99.90
20712;DHT22;10517;50.742;4.224;2023-08-01T03:15:05;16.60;99.90
20712;DHT22;10517;50.742;4.224;2023-08-01T03:17:30;16.60;99.90
20712;DHT22;10517;50.742;4.224;2023-08-01T03:19:56;16.70;99.90
20712;DHT22;10517;50.742;4.224;2023-08-01T03:22:22;16.70;99.90
20712;DHT22;10517;50.742;4.224;2023-08-01T03:24:47;16.70;99.90
20712;DHT22;10517;50.742;4.224;2023-08-01T03:27:13;16.70;99.90
20712;DHT22;10517;50.742;4.224;2023-08-01T03:29:39;16.70;99.90
20712;DHT22;10517;50.742;4.224;2023-08-01T03:32:04;16.70;99.90
20712;DHT22;10517;50.742;4.224;2023-08-01T03:34:30;16.70;99.90
20712;DHT22;10517;50.742;4.224;2023-08-01T03:36:56;16.60;99.90
20712;DHT22;10517;50.742;4.224;2023-08-01T03:39:21;16.70;99.90
20712;DHT22;10517;50.742;4.224;2023-08-01T03:41:47;16.60;99.90
20712;DHT22;10517;50.742;4.224;2023-08-01T03:44:12;16.70;99.90
20712;DHT22;10517;50.742;4.224;2023-08-01T03:46:38;16.70;99.90
20712;DHT22;10517;50.742;4.224;2023-08-01T03:49:03;16.70;99.90
20712;DHT22;10517;50.742;4.224;2023-08-01T03:51:29;16.70;99.90
20712;DHT22;10517;50.742;4.224;2023-08-01T03:53:54;16.60;99.90
20712;DHT22;10517;50.742;4.224;2023-08-01T03:56:20;16.60;99.90
20712;DHT22;10517;50.742;4.224;2023-08-01T03:58:45;16.60;99.90
20712;DHT22;10517;50.742;4.224;2023-08-01T04:01:11;16.60;99.90
20712;DHT22;10517;50.742;4.224;2023-08-01T04:03:37;16.50;99.90
20712;DHT22;10517;50.742;4.224;2023-08-01T04:06:03;16.50;99.90
20712;DHT22;10517;50.742;4.224;2023-08-01T04:08:28;16.40;99.90
20712;DHT22;10517;50.742;4.224;2023-08-01T04:10:54;16.30;99.90
20712;DHT22;10517;50.742;4.224;2023-08-01T04:13:19;16.30;99.90
20712;DHT22;10517;50.742;4.224;2023-08-01T04:15:45;16.30;99.90
20712;DHT22;10517;50.742;4.224;2023-08-01T04:18:10;16.40;99.90
20712;DHT22;10517;50.742;4.224;2023-08-01T04:20:36;16.30;99.90
20712;DHT22;10517;50.742;4.224;2023-08-01T04:23:02;16.40;99.90
20712;DHT22;10517;50.742;4.224;2023-08-01T04:25:27;16.40;99.90
20712;DHT22;10517;50.742;4.224;2023-08-01T04:27:53;16.40;99.90
20712;DHT22;10517;50.742;4.224;2023-08-01T04:30:19;16.30;99.90
20712;DHT22;10517;50.742;4.224;2023-08-01T04:32:44;16.30;99.90
20712;DHT22;10517;50.742;4.224;2023-08-01T04:35:10;16.30;99.90
20712;DHT22;10517;50.742;4.224;2023-08-01T04:37:35;16.40;99.90
20712;DHT22;10517;50.742;4.224;2023-08-01T04:40:01;16.50;99.90
20712;DHT22;10517;50.742;4.224;2023-08-01T04:42:27;16.50;99.90
20712;DHT22;10517;50.742;4.224;2023-08-01T04:44:54;16.50;99.90
20712;DHT22;10517;50.742;4.224;2023-08-01T04:47:20;16.60;99.90
20712;DHT22;10517;50.742;4.224;2023-08-01T04:49:46;16.60;99.90
20712;DHT22;10517;50.742;4.224;2023-08-01T04:52:12;16.60;99.90
20712;DHT22;10517;50.742;4.224;2023-08-01T04:54:37;16.70;99.90
20712;DHT22;10517;50.742;4.224;2023-08-01T04:57:03;16.70;99.90
20712;DHT22;10517;50.742;4.224;2023-08-01T04:59:29;16.80;99.90
20712;DHT22;10517;50.742;4.224;2023-08-01T05:01:55;17.00;99.90
20712;DHT22;10517;50.742;4.224;2023-08-01T05:04:20;17.00;99.90
20712;DHT22;10517;50.742;4.224;2023-08-01T05:06:46;17.00;99.90
20712;DHT22;10517;50.742;4.224;2023-08-01T05:09:11;17.10;99.90
20712;DHT22;10517;50.742;4.224;2023-08-01T05:11:37;17.10;99.90
20712;DHT22;10517;50.742;4.224;2023-08-01T05:14:02;17.10;99.90
20712;DHT22;10517;50.742;4.224;2023-08-01T05:16:28;17.20;99.90
20712;DHT22;10517;50.742;4.224;2023-08-01T05:18:53;17.20;99.90
20712;DHT22;10517;50.742;4.224;2023-08-01T05:21:19;17.10;99.90
20712;DHT22;10517;50.742;4.224;2023-08-01T05:23:45;17.10;99.90
20712;DHT22;10517;50.742;4.224;2023-08-01T05:26:10;17.20;99.90
20712;DHT22;10517;50.742;4.224;2023-08-01T05:28:36;17.20;99.90
20712;DHT22;10517;50.742;4.224;2023-08-01T05:31:01;17.20;99.90
20712;DHT22;10517;50.742;4.224;2023-08-01T05:33:27;17.20;99.90
20712;DHT22;10517;50.742;4.224;2023-08-01T05:35:52;17.30;99.90
20712;DHT22;10517;50.742;4.224;2023-08-01T05:38:18;17.30;99.90
20712;DHT22;10517;50.742;4.224;2023-08-01T05:40:43;17.20;99.90
20712;DHT22;10517;50.742;4.224;2023-08-01T05:43:09;17.10;99.90
20712;DHT22;10517;50.742;4.224;2023-08-01T05:45:35;17.10;99.90
20712;DHT22;10517;50.742;4.224;2023-08-01T05:48:01;17.00;99.90
20712;DHT22;10517;50.742;4.224;2023-08-01T05:50:27;17.00;99.90
20712;DHT22;10517;50.742;4.224;2023-08-01T05:52:53;16.90;99.90
20712;DHT22;10517;50.742;4.224;2023-08-01T05:55:18;17.00;99.90
20712;DHT22;10517;50.742;4.224;2023-08-01T05:57:45;17.00;99.90
20712;DHT22;10517;50.742;4.224;2023-08-01T06:00:11;17.00;99.90
20712;DHT22;10517;50.742;4.224;2023-08-01T06:02:36;17.00;99.90
20712;DHT22;10517;50.742;4.224;2023-08-01T06:05:03;17.00;99.90
20712;DHT22;10517;50.742;4.224;2023-08-01T06:07:29;17.00;99.90
20712;DHT22;10517;50.742;4.224;2023-08-01T06:09:54;17.00;99.90
20712;DHT22;10517;50.742;4.224;2023-08-01T06:12:20;17.00;99.90
20712;DHT22;10517;50.742;4.224;2023-08-01T06:14:46;17.00;99.90
20712;DHT22;10517;50.742;4.224;2023-08-01T06:17:13;17.00;99.90
20712;DHT22;10517;50.742;4.224;2023-08-01T06:19:39;17.10;99.90
20712;DHT22;10517;50.742;4.224;2023-08-01T06:22:04;17.00;99.90
20712;DHT22;10517;50.742;4.224;2023-08-01T06:24:30;17.10;99.90
20712;DHT22;10517;50.742;4.224;2023-08-01T06:26:56;17.20;99.90
20712;DHT22;10517;50.742;4.224;2023-08-01T06:29:21;17.10;99.90
20712;DHT22;10517;50.742;4.224;2023-08-01T06:31:47;17.10;99.90
20712;DHT22;10517;50.742;4.224;2023-08-01T06:34:12;17.10;99.90
20712;DHT22;10517;50.742;4.224;2023-08-01T06:36:38;17.20;99.90
20712;DHT22;10517;50.742;4.224;2023-08-01T06:39:04;17.30;99.90
20712;DHT22;10517;50.742;4.224;2023-08-01T06:41:29;17.20;99.90
20712;DHT22;10517;50.742;4.224;2023-08-01T06:43:55;17.20;99.90
20712;DHT22;10517;50.742;4.224;2023-08-01T06:46:21;17.10;99.90
20712;DHT22;10517;50.742;4.224;2023-08-01T06:48:46;17.10;99.90
20712;DHT22;10517;50.742;4.224;2023-08-01T06:51:12;17.20;99.90
20712;DHT22;10517;50.742;4.224;2023-08-01T06:53:37;17.40;99.90
20712;DHT22;10517;50.742;4.224;2023-08-01T06:56:03;17.60;99.90
20712;DHT22;10517;50.742;4.224;2023-08-01T06:58:28;17.70;99.90
20712;DHT22;10517;50.742;4.224;2023-08-01T07:00:54;17.80;99.90
20712;DHT22;10517;50.742;4.224;2023-08-01T07:03:20;17.70;99.90
20712;DHT22;10517;50.742;4.224;2023-08-01T07:05:45;17.70;99.90
20712;DHT22;10517;50.742;4.224;2023-08-01T07:08:11;17.80;99.90
20712;DHT22;10517;50.742;4.224;2023-08-01T07:10:37;17.80;99.90
20712;DHT22;10517;50.742;4.224;2023-08-01T07:13:03;18.00;99.90
20712;DHT22;10517;50.742;4.224;2023-08-01T07:15:30;18.00;99.90
20712;DHT22;10517;50.742;4.224;2023-08-01T07:17:56;18.00;99.90
20712;DHT22;10517;50.742;4.224;2023-08-01T07:20:22;18.20;99.90
20712;DHT22;10517;50.742;4.224;2023-08-01T07:22:48;18.10;99.90
20712;DHT22;10517;50.742;4.224;2023-08-01T07:25:13;18.20;99.90
20712;DHT22;10517;50.742;4.224;2023-08-01T07:27:39;18.30;99.90
20712;DHT22;10517;50.742;4.224;2023-08-01T07:30:05;18.40;99.90
20712;DHT22;10517;50.742;4.224;2023-08-01T07:32:31;18.30;99.90
20712;DHT22;10517;50.742;4.224;2023-08-01T07:34:57;18.30;99.90
20712;DHT22;10517;50.742;4.224;2023-08-01T07:37:23;18.20;99.90
20712;DHT22;10517;50.742;4.224;2023-08-01T07:39:49;18.10;99.90
20712;DHT22;10517;50.742;4.224;2023-08-01T07:42:15;18.00;99.90
20712;DHT22;10517;50.742;4.224;2023-08-01T07:44:40;18.00;99.90
20712;DHT22;10517;50.742;4.224;2023-08-01T07:47:06;18.20;99.90
20712;DHT22;10517;50.742;4.224;2023-08-01T07:49:32;18.10;99.90
20712;DHT22;10517;50.742;4.224;2023-08-01T07:51:57;18.10;99.90
20712;DHT22;10517;50.742;4.224;2023-08-01T07:54:24;18.10;99.90
20712;DHT22;10517;50.742;4.224;2023-08-01T07:56:49;18.00;99.90
20712;DHT22;10517;50.742;4.224;2023-08-01T07:59:15;18.00;99.90
20712;DHT22;10517;50.742;4.224;2023-08-01T08:01:41;18.00;99.90
20712;DHT22;10517;50.742;4.224;2023-08-01T08:04:07;18.10;99.90
20712;DHT22;10517;50.742;4.224;2023-08-01T08:06:32;18.40;99.90
20712;DHT22;10517;50.742;4.224;2023-08-01T08:08:58;18.50;99.90
20712;DHT22;10517;50.742;4.224;2023-08-01T08:11:24;18.40;99.90
20712;DHT22;10517;50.742;4.224;2023-08-01T08:13:49;18.20;99.90
20712;DHT22;10517;50.742;4.224;2023-08-01T08:16:15;17.90;99.90
20712;DHT22;10517;50.742;4.224;2023-08-01T08:18:41;17.70;99.90
20712;DHT22;10517;50.742;4.224;2023-08-01T08:21:07;17.50;99.90
20712;DHT22;10517;50.742;4.224;2023-08-01T08:23:32;17.40;99.90
20712;DHT22;10517;50.742;4.224;2023-08-01T08:25:58;17.50;99.90
20712;DHT22;10517;50.742;4.224;2023-08-01T08:28:31;17.70;99.90
20712;DHT22;10517;50.742;4.224;2023-08-01T08:30:58;17.60;99.90
20712;DHT22;10517;50.742;4.224;2023-08-01T08:33:24;17.70;99.90
20712;DHT22;10517;50.742;4.224;2023-08-01T08:35:50;17.80;99.90
20712;DHT22;10517;50.742;4.224;2023-08-01T08:38:17;17.80;99.90
20712;DHT22;10517;50.742;4.224;2023-08-01T08:41:09;17.80;99.90
20712;DHT22;10517;50.742;4.224;2023-08-01T08:43:36;17.70;99.90
20712;DHT22;10517;50.742;4.224;2023-08-01T08:46:03;17.60;99.90
20712;DHT22;10517;50.742;4.224;2023-08-01T08:48:30;17.80;99.90
20712;DHT22;10517;50.742;4.224;2023-08-01T08:51:00;17.90;99.90
20712;DHT22;10517;50.742;4.224;2023-08-01T08:53:26;18.00;99.90
20712;DHT22;10517;50.742;4.224;2023-08-01T08:55:52;18.20;99.90
20712;DHT22;10517;50.742;4.224;2023-08-01T08:58:18;18.30;99.90
20712;DHT22;10517;50.742;4.224;2023-08-01T09:00:44;18.40;99.90
20712;DHT22;10517;50.742;4.224;2023-08-01T09:03:10;18.30;99.90
20712;DHT22;10517;50.742;4.224;2023-08-01T09:05:49;18.20;99.90
20712;DHT22;10517;50.742;4.224;2023-08-01T09:08:19;18.40;99.90
20712;DHT22;10517;50.742;4.224;2023-08-01T09:10:46;18.70;99.90
20712;DHT22;10517;50.742;4.224;2023-08-01T09:13:12;18.90;99.90
20712;DHT22;10517;50.742;4.224;2023-08-01T09:15:40;18.80;99.90
20712;DHT22;10517;50.742;4.224;2023-08-01T09:18:07;18.80;99.90
20712;DHT22;10517;50.742;4.224;2023-08-01T09:20:48;19.00;99.90
20712;DHT22;10517;50.742;4.224;2023-08-01T09:23:15;19.30;99.90
20712;DHT22;10517;50.742;4.224;2023-08-01T09:25:42;19.50;99.90
20712;DHT22;10517;50.742;4.224;2023-08-01T09:28:18;19.50;99.90
20712;DHT22;10517;50.742;4.224;2023-08-01T09:30:54;19.30;99.90
20712;DHT22;10517;50.742;4.224;2023-08-01T09:33:21;19.20;99.90
20712;DHT22;10517;50.742;4.224;2023-08-01T09:35:49;19.10;99.90
20712;DHT22;10517;50.742;4.224;2023-08-01T09:38:15;19.10;99.90
20712;DHT22;10517;50.742;4.224;2023-08-01T09:40:42;19.20;99.90
20712;DHT22;10517;50.742;4.224;2023-08-01T09:43:10;19.30;99.90
20712;DHT22;10517;50.742;4.224;2023-08-01T09:45:36;19.50;99.90
20712;DHT22;10517;50.742;4.224;2023-08-01T09:48:02;19.50;99.90
20712;DHT22;10517;50.742;4.224;2023-08-01T09:50:29;19.50;99.90
20712;DHT22;10517;50.742;4.224;2023-08-01T09:52:55;19.70;99.90
20712;DHT22;10517;50.742;4.224;2023-08-01T09:55:31;19.70;99.90
20712;DHT22;10517;50.742;4.224;2023-08-01T09:57:58;19.80;99.90
20712;DHT22;10517;50.742;4.224;2023-08-01T10:00:28;20.00;99.90
20712;DHT22;10517;50.742;4.224;2023-08-01T10:02:57;20.10;99.90
20712;DHT22;10517;50.742;4.224;2023-08-01T10:05:23;20.50;99.90
20712;DHT22;10517;50.742;4.224;2023-08-01T10:07:50;21.00;99.90
20712;DHT22;10517;50.742;4.224;2023-08-01T10:10:17;21.40;99.90
20712;DHT22;10517;50.742;4.224;2023-08-01T10:12:46;21.50;99.90
20712;DHT22;10517;50.742;4.224;2023-08-01T10:15:15;21.60;99.90
20712;DHT22;10517;50.742;4.224;2023-08-01T10:17:41;21.50;99.90
20712;DHT22;10517;50.742;4.224;2023-08-01T10:20:08;21.60;99.90
20712;DHT22;10517;50.742;4.224;2023-08-01T10:22:34;21.90;99.90
20712;DHT22;10517;50.742;4.224;2023-08-01T10:25:01;21.90;99.90
20712;DHT22;10517;50.742;4.224;2023-08-01T10:27:26;21.50;99.90
20712;DHT22;10517;50.742;4.224;2023-08-01T10:29:59;21.50;99.90
20712;DHT22;10517;50.742;4.224;2023-08-01T10:32:33;21.20;99.90
20712;DHT22;10517;50.742;4.224;2023-08-01T10:34:59;21.00;99.90
20712;DHT22;10517;50.742;4.224;2023-08-01T10:37:25;21.00;99.90
20712;DHT22;10517;50.742;4.224;2023-08-01T10:39:58;21.00;99.90
20712;DHT22;10517;50.742;4.224;2023-08-01T10:42:24;21.20;99.90
20712;DHT22;10517;50.742;4.224;2023-08-01T10:44:50;21.60;99.90
20712;DHT22;10517;50.742;4.224;2023-08-01T10:47:25;21.60;99.90
20712;DHT22;10517;50.742;4.224;2023-08-01T10:49:52;21.20;99.90
20712;DHT22;10517;50.742;4.224;2023-08-01T10:54:59;21.50;99.90
20712;DHT22;10517;50.742;4.224;2023-08-01T10:57:26;21.60;99.90
20712;DHT22;10517;50.742;4.224;2023-08-01T10:59:55;21.70;99.90
20712;DHT22;10517;50.742;4.224;2023-08-01T11:02:26;21.80;99.90
20712;DHT22;10517;50.742;4.224;2023-08-01T11:04:59;22.20;99.90
20712;DHT22;10517;50.742;4.224;2023-08-01T11:07:25;21.90;99.90
20712;DHT22;10517;50.742;4.224;2023-08-01T11:10:03;21.60;99.90
20712;DHT22;10517;50.742;4.224;2023-08-01T11:12:30;21.20;99.90
20712;DHT22;10517;50.742;4.224;2023-08-01T11:15:00;21.20;99.90
20712;DHT22;10517;50.742;4.224;2023-08-01T11:17:26;21.50;99.90
20712;DHT22;10517;50.742;4.224;2023-08-01T11:19:51;22.10;99.90
20712;DHT22;10517;50.742;4.224;2023-08-01T11:22:17;22.40;99.90
20712;DHT22;10517;50.742;4.224;2023-08-01T11:24:50;23.00;99.90
20712;DHT22;10517;50.742;4.224;2023-08-01T11:27:15;23.00;99.90
20712;DHT22;10517;50.742;4.224;2023-08-01T11:29:41;22.60;99.90
20712;DHT22;10517;50.742;4.224;2023-08-01T11:32:07;22.50;99.90
20712;DHT22;10517;50.742;4.224;2023-08-01T11:34:40;22.80;99.90
20712;DHT22;10517;50.742;4.224;2023-08-01T11:37:13;22.70;99.90
20712;DHT22;10517;50.742;4.224;2023-08-01T11:39:40;22.80;99.90
20712;DHT22;10517;50.742;4.224;2023-08-01T11:42:06;23.10;99.90
20712;DHT22;10517;50.742;4.224;2023-08-01T11:44:31;22.70;99.90
20712;DHT22;10517;50.742;4.224;2023-08-01T11:46:57;22.20;99.90
20712;DHT22;10517;50.742;4.224;2023-08-01T11:49:23;21.80;99.90
20712;DHT22;10517;50.742;4.224;2023-08-01T11:51:49;21.70;99.90
20712;DHT22;10517;50.742;4.224;2023-08-01T11:54:15;22.20;99.90
20712;DHT22;10517;50.742;4.224;2023-08-01T11:56:42;22.80;99.90
20712;DHT22;10517;50.742;4.224;2023-08-01T11:59:15;23.20;99.90
20712;DHT22;10517;50.742;4.224;2023-08-01T12:01:42;23.80;99.90
20712;DHT22;10517;50.742;4.224;2023-08-01T12:04:08;23.80;99.90
20712;DHT22;10517;50.742;4.224;2023-08-01T12:06:34;23.60;99.90
20712;DHT22;10517;50.742;4.224;2023-08-01T12:09:11;23.40;99.90
20712;DHT22;10517;50.742;4.224;2023-08-01T12:11:37;23.30;99.90
20712;DHT22;10517;50.742;4.224;2023-08-01T12:14:08;23.10;99.90
20712;DHT22;10517;50.742;4.224;2023-08-01T12:16:46;22.80;99.90
20712;DHT22;10517;50.742;4.224;2023-08-01T12:19:19;22.60;99.90
20712;DHT22;10517;50.742;4.224;2023-08-01T12:21:46;22.60;99.90
20712;DHT22;10517;50.742;4.224;2023-08-01T12:24:11;22.90;99.90
20712;DHT22;10517;50.742;4.224;2023-08-01T12:26:37;23.00;99.90
20712;DHT22;10517;50.742;4.224;2023-08-01T12:29:02;23.40;99.90
20712;DHT22;10517;50.742;4.224;2023-08-01T12:31:28;23.80;99.90
20712;DHT22;10517;50.742;4.224;2023-08-01T12:33:54;24.00;99.90
20712;DHT22;10517;50.742;4.224;2023-08-01T12:36:19;23.80;99.90
20712;DHT22;10517;50.742;4.224;2023-08-01T12:38:45;23.60;99.90
20712;DHT22;10517;50.742;4.224;2023-08-01T12:41:11;23.70;99.90
20712;DHT22;10517;50.742;4.224;2023-08-01T12:43:37;23.90;99.90
20712;DHT22;10517;50.742;4.224;2023-08-01T12:46:02;24.10;99.90
20712;DHT22;10517;50.742;4.224;2023-08-01T12:48:28;24.20;99.90
20712;DHT22;10517;50.742;4.224;2023-08-01T12:50:54;24.20;99.90
20712;DHT22;10517;50.742;4.224;2023-08-01T12:53:21;24.50;99.90
20712;DHT22;10517;50.742;4.224;2023-08-01T12:55:49;25.10;99.90
20712;DHT22;10517;50.742;4.224;2023-08-01T12:58:15;25.10;99.90
20712;DHT22;10517;50.742;4.224;2023-08-01T13:00:42;24.60;99.90
20712;DHT22;10517;50.742;4.224;2023-08-01T13:03:08;24.50;99.90
20712;DHT22;10517;50.742;4.224;2023-08-01T13:05:38;24.30;99.90
20712;DHT22;10517;50.742;4.224;2023-08-01T13:08:04;24.60;99.90
20712;DHT22;10517;50.742;4.224;2023-08-01T13:10:31;24.50;99.90
20712;DHT22;10517;50.742;4.224;2023-08-01T13:12:57;24.90;99.90
20712;DHT22;10517;50.742;4.224;2023-08-01T13:15:23;25.10;99.90
20712;DHT22;10517;50.742;4.224;2023-08-01T13:17:49;25.20;99.90
20712;DHT22;10517;50.742;4.224;2023-08-01T13:20:15;25.00;99.90
20712;DHT22;10517;50.742;4.224;2023-08-01T13:22:41;24.90;99.90
20712;DHT22;10517;50.742;4.224;2023-08-01T13:25:07;25.00;99.90
20712;DHT22;10517;50.742;4.224;2023-08-01T13:27:37;25.70;99.90
20712;DHT22;10517;50.742;4.224;2023-08-01T13:30:03;25.40;99.90
20712;DHT22;10517;50.742;4.224;2023-08-01T13:32:28;24.60;99.90
20712;DHT22;10517;50.742;4.224;2023-08-01T13:34:54;24.30;99.90
20712;DHT22;10517;50.742;4.224;2023-08-01T13:37:19;24.50;99.90
20712;DHT22;10517;50.742;4.224;2023-08-01T13:39:45;24.20;99.90
20712;DHT22;10517;50.742;4.224;2023-08-01T13:42:12;24.40;99.90
20712;DHT22;10517;50.742;4.224;2023-08-01T13:44:37;24.70;99.90
20712;DHT22;10517;50.742;4.224;2023-08-01T13:47:03;26.30;99.90
20712;DHT22;10517;50.742;4.224;2023-08-01T13:49:29;27.60;99.90
20712;DHT22;10517;50.742;4.224;2023-08-01T13:51:55;28.00;99.90
20712;DHT22;10517;50.742;4.224;2023-08-01T13:54:21;29.10;99.90
20712;DHT22;10517;50.742;4.224;2023-08-01T13:56:46;30.60;99.90
20712;DHT22;10517;50.742;4.224;2023-08-01T13:59:12;30.40;99.90
20712;DHT22;10517;50.742;4.224;2023-08-01T14:01:37;30.10;99.90
20712;DHT22;10517;50.742;4.224;2023-08-01T14:04:04;29.40;99.90
20712;DHT22;10517;50.742;4.224;2023-08-01T14:06:30;28.60;99.90
20712;DHT22;10517;50.742;4.224;2023-08-01T14:08:55;27.30;99.90
20712;DHT22;10517;50.742;4.224;2023-08-01T14:11:21;26.40;99.90
20712;DHT22;10517;50.742;4.224;2023-08-01T14:13:46;26.50;99.90
20712;DHT22;10517;50.742;4.224;2023-08-01T14:16:12;26.30;99.90
20712;DHT22;10517;50.742;4.224;2023-08-01T14:18:38;26.10;99.90
20712;DHT22;10517;50.742;4.224;2023-08-01T14:21:05;25.80;99.90
20712;DHT22;10517;50.742;4.224;2023-08-01T14:23:30;25.50;99.90
20712;DHT22;10517;50.742;4.224;2023-08-01T14:25:58;24.80;99.90
20712;DHT22;10517;50.742;4.224;2023-08-01T14:28:23;24.20;99.90
20712;DHT22;10517;50.742;4.224;2023-08-01T14:30:49;23.60;99.90
20712;DHT22;10517;50.742;4.224;2023-08-01T14:33:14;23.50;99.90
20712;DHT22;10517;50.742;4.224;2023-08-01T14:35:40;23.40;99.90
20712;DHT22;10517;50.742;4.224;2023-08-01T14:38:06;23.60;99.90
20712;DHT22;10517;50.742;4.224;2023-08-01T14:40:32;23.30;99.90
20712;DHT22;10517;50.742;4.224;2023-08-01T14:43:01;23.00;99.90
20712;DHT22;10517;50.742;4.224;2023-08-01T14:45:27;22.70;99.90
20712;DHT22;10517;50.742;4.224;2023-08-01T14:47:52;22.20;99.90
20712;DHT22;10517;50.742;4.224;2023-08-01T14:50:18;21.90;99.90
20712;DHT22;10517;50.742;4.224;2023-08-01T14:52:44;21.50;99.90
20712;DHT22;10517;50.742;4.224;2023-08-01T14:55:09;21.50;99.90
20712;DHT22;10517;50.742;4.224;2023-08-01T14:57:35;21.40;99.90
20712;DHT22;10517;50.742;4.224;2023-08-01T15:00:01;21.40;99.90
20712;DHT22;10517;50.742;4.224;2023-08-01T15:02:27;21.40;99.90
20712;DHT22;10517;50.742;4.224;2023-08-01T15:04:54;21.40;99.90
20712;DHT22;10517;50.742;4.224;2023-08-01T15:07:23;21.60;99.90
20712;DHT22;10517;50.742;4.224;2023-08-01T15:09:50;21.70;99.90
20712;DHT22;10517;50.742;4.224;2023-08-01T15:12:16;21.90;99.90
20712;DHT22;10517;50.742;4.224;2023-08-01T15:14:42;21.90;99.90
20712;DHT22;10517;50.742;4.224;2023-08-01T15:17:08;21.80;99.90
20712;DHT22;10517;50.742;4.224;2023-08-01T15:19:34;21.70;99.90
20712;DHT22;10517;50.742;4.224;2023-08-01T15:22:00;21.70;99.90
20712;DHT22;10517;50.742;4.224;2023-08-01T15:24:26;21.90;99.90
20712;DHT22;10517;50.742;4.224;2023-08-01T15:26:52;22.20;99.90